deformed-offering

Nearby METAR Reports

 

KSJC - San Jose, California, USA
Distance from station: NE 9mi, 14km
Updated: Sat, 18-Sep-2021 2:53am PDT
Clear
Clear
 Wind from S
Wind: S 9 mph , 15 km/h
Temperature: 57°F , 14°C
Dew Point: 48°F , 9°C
Humidity: 72%
Barometer: 30.03 inHg , 1016.9 hPa
Clouds: Clear
Visibility: 10 miles , 16 km
2021/09/18 09:53 KSJC 180953Z AUTO 17008KT 10SM CLR 14/09 A3003 RMK AO2 SLP167 T01440094 $
KRHV - San Jose/Reid, California, USA
Distance from station: ENE 12mi, 19km
Updated: Fri, 17-Sep-2021 9:47pm PDT
NOT Current
Clear
Clear
 Wind from calm
Wind: Calm
Temperature: 61°F , 16°C
Dew Point: 52°F , 11°C
Humidity: 72%
Barometer: 30.01 inHg , 1016.3 hPa
Clouds: Clear
Visibility: 10 miles , 16 km
2021/09/18 04:47 KRHV 180447Z 00000KT 10SM SKC 16/11 A3001 RMK LAST
 
KPAO - Palo Alto, California, USA
Distance from station: NNW 14mi, 23km
Updated: Fri, 17-Sep-2021 8:47pm PDT
NOT Current
Clear
Clear
 Wind from N
Wind: N 7 mph , 11 km/h
Temperature: 61°F , 16°C
Dew Point: 52°F , 11°C
Humidity: 72%
Barometer: 29.98 inHg , 1015.2 hPa
Clouds: Clear
Visibility: 10 miles , 16 km
2021/09/18 03:47 KPAO 180347Z 36006KT 10SM SKC 16/11 A2998 RMK LAST
KSQL - San Carlos Airpo, California, USA
Distance from station: NW 21mi, 34km
Updated: Sat, 18-Sep-2021 2:55am PDT
Clear
Clear
 Wind from calm
Wind: Calm
Temperature: 55°F , 13°C
Dew Point: 50°F , 10°C
Humidity: 82%
Barometer: 30.03 inHg , 1016.9 hPa
Clouds: Clear
Visibility: 10 miles , 16 km
2021/09/18 09:55 KSQL 180955Z AUTO 00000KT 10SM CLR 13/10 A3003 RMK AO2
 
KWVI - Watsonville, California, USA
Distance from station: SSE 27mi, 44km
Updated: Sat, 18-Sep-2021 2:53am PDT
Overcast
Overcast
 Wind from W
Wind: W 6 mph , 9 km/h
Temperature: 59°F , 15°C
Dew Point: 52°F , 11°C
Humidity: 77%
Barometer: 30.05 inHg , 1017.6 hPa
Clouds: Overcast
Visibility: 10 miles , 16 km
Cloud details: Overcast 2000 ft
2021/09/18 09:53 KWVI 180953Z AUTO 27005KT 10SM OVC020 15/11 A3005 RMK AO2 SLP175 T01500106
KHWD - Hayward, California, USA
Distance from station: N 28mi, 44km
Updated: Sat, 18-Sep-2021 2:54am PDT
Overcast
Overcast
 Wind from WSW
Wind: WSW 6 mph , 9 km/h
Temperature: 61°F , 16°C
Dew Point: 52°F , 11°C
Humidity: 72%
Barometer: 30.01 inHg , 1016.3 hPa
Clouds: Overcast
Visibility: 10 miles , 16 km
Cloud details: Overcast 1900 ft
2021/09/18 09:54 KHWD 180954Z 25005KT 10SM OVC019 16/11 A3001 RMK AO2 SLP172 T01560111
 
KSFO - San Francisco, California, USA
Distance from station: NW 30mi, 49km
Updated: Sat, 18-Sep-2021 2:56am PDT
Few Clouds
Few Clouds
 Wind from calm
Wind: Calm
Temperature: 57°F , 14°C
Dew Point: 52°F , 11°C
Humidity: 82%
Barometer: 30.01 inHg , 1016.3 hPa
Clouds: Few Clouds
Visibility: 10 miles , 16 km
Cloud details: Few Clouds 1200 ft
2021/09/18 09:56 KSFO 180956Z 00000KT 10SM FEW012 14/11 A3001 RMK AO2 SLP161 T01440106
KHAF - Half Moon Bay, California, USA
Distance from station: WNW 31mi, 50km
Updated: Sat, 18-Sep-2021 2:55am PDT
Overcast
Overcast
 Wind from S
Wind: S 7 mph , 11 km/h
Temperature: 55°F , 13°C
Dew Point: 52°F , 11°C
Humidity: 88%
Barometer: 30.03 inHg , 1016.9 hPa
Clouds: Overcast
Visibility: 8 miles , 13 km
Cloud details: Mostly Cloudy 1700 ft
Overcast 2200 ft
2021/09/18 09:55 KHAF 180955Z AUTO 17006KT 8SM BKN017 OVC022 13/11 A3003 RMK AO2 PWINO
 
KLVK - Livermore, California, USA
Distance from station: NNE 31mi, 51km
Updated: Sat, 18-Sep-2021 2:53am PDT
Few Clouds
Few Clouds
 Wind from S
Wind: S 5 mph , 7 km/h
Temperature: 55°F , 13°C
Dew Point: 52°F , 11°C
Humidity: 88%
Barometer: 30.01 inHg , 1016.3 hPa
Clouds: Few Clouds
Visibility: 10 miles , 16 km
Cloud details: Few Clouds 1600 ft
2021/09/18 09:53 KLVK 180953Z AUTO 18004KT 10SM FEW016 13/11 A3001 RMK AO2 SLP158 T01330111
KOAK - Oakland, California, USA
Distance from station: NNW 33mi, 53km
Updated: Sat, 18-Sep-2021 2:53am PDT
Partly Cloudy
Partly Cloudy
 Wind from WSW
Wind: WSW 5 mph , 7 km/h
Temperature: 61°F , 16°C
Dew Point: 52°F , 11°C
Humidity: 72%
Barometer: 30.02 inHg , 1016.6 hPa
Clouds: Partly Cloudy
Visibility: 10 miles , 16 km
Cloud details: Few Clouds 1000 ft
Partly Cloudy 2400 ft
2021/09/18 09:53 KOAK 180953Z 25004KT 10SM FEW010 SCT024 16/11 A3002 RMK AO2 SLP164 T01560106
 
KCVH - Hollister Muni, California, USA
Distance from station: SE 42mi, 68km
Updated: Sat, 18-Sep-2021 2:55am PDT
Overcast
Overcast
 Wind from calm
Wind: Calm
Temperature: 59°F , 15°C
Dew Point: 52°F , 11°C
Humidity: 77%
Barometer: 30.06 inHg , 1017.9 hPa
Clouds: Overcast
Visibility: 10 miles , 16 km
Cloud details: Overcast 1500 ft
2021/09/18 09:55 KCVH 180955Z AUTO 00000KT 10SM OVC015 15/11 A3006 RMK A01
KSNS - Salinas, California, USA
Distance from station: SSE 48mi, 77km
Updated: Sat, 18-Sep-2021 2:53am PDT
Overcast
Overcast
 Wind from calm
Wind: Calm
Temperature: 61°F , 16°C
Dew Point: 52°F , 11°C
Humidity: 72%
Barometer: 30.04 inHg , 1017.3 hPa
Clouds: Overcast
Visibility: 10 miles , 16 km
Cloud details: Overcast 1600 ft
2021/09/18 09:53 KSNS 180953Z AUTO 00000KT 10SM OVC016 16/11 A3004 RMK AO2 SLP183 T01560111
 
KMRY - Monterey, California, USA
Distance from station: SSE 49mi, 78km
Updated: Sat, 18-Sep-2021 2:54am PDT
Overcast
Overcast
 Wind from WSW
Wind: WSW 7 mph , 11 km/h
Temperature: 61°F , 16°C
Dew Point: 52°F , 11°C
Humidity: 72%
Barometer: 30.05 inHg , 1017.6 hPa
Clouds: Overcast
Visibility: 10 miles , 16 km
Cloud details: Overcast 1800 ft
2021/09/18 09:54 KMRY 180954Z AUTO 25006KT 10SM OVC018 16/11 A3005 RMK AO2 SLP187 T01560111
KCCR - Concord, California, USA
Distance from station: N 50mi, 81km
Updated: Sat, 18-Sep-2021 2:53am PDT
Smoke, Clear
Smoke, Clear
 Wind from SSW
Wind: SSW 12 mph , 19 km/h
Temperature: 57°F , 14°C
Dew Point: 50°F , 10°C
Humidity: 77%
Barometer: 30.00 inHg , 1015.9 hPa
Summary: Smoke
Clouds: Clear
Visibility: 10 miles , 16 km
2021/09/18 09:53 KCCR 180953Z AUTO 20010KT 10SM FU CLR 14/10 A3000 RMK AO2 SLP146 T01440100
deformed-offering